Time;durP1;ratioP1;P1;durP2;ratioP2;P2;SDS_P1;SDS_P2;PMS_P1;PMS_P2;Temp;Humidity;BMP_temperature;BMP_pressure;BME280_temperature;BME280_humidity;BME280_pressure;Samples;Min_cycle;Max_cycle;Signal;HPM_P1;HPM_P2
2022/05/19 00:02:19;;;;;;;1.15;1.00;;;;;;;;;;5095289;28;20031;-83
2022/05/19 00:04:44;;;;;;;3.15;1.70;;;;;;;;;;5095377;28;20027;-81
2022/05/19 00:07:10;;;;;;;1.40;0.70;;;;;;;;;;5095476;28;20073;-81
2022/05/19 00:09:40;;;;;;;0.28;0.28;;;;;;;;;;5094204;28;20047;-81
2022/05/19 00:12:09;;;;;;;1.63;0.60;;;;;;;;;;5095408;28;20028;-82
2022/05/19 00:14:34;;;;;;;0.25;0.25;;;;;;;;;;5095562;28;20019;-82
2022/05/19 00:17:02;;;;;;;0.30;0.17;;;;;;;;;;5095093;28;20039;-82
2022/05/19 00:19:32;;;;;;;1.05;0.60;;;;;;;;;;5093340;28;20043;-80
2022/05/19 00:21:57;;;;;;;0.65;0.65;;;;;;;;;;5095334;28;20439;-80
2022/05/19 00:24:25;;;;;;;0.80;0.47;;;;;;;;;;5095098;28;20449;-82
2022/05/19 00:30:12;;;;;;;1.30;0.57;;;;;;;;;;5074131;22;20110;-80
2022/05/19 00:35:31;;;;;;;0.28;0.28;;;;;;;;;;5686418;23;20060;-80
2022/05/19 00:37:59;;;;;;;0.65;0.30;;;;;;;;;;5063316;23;20053;-80
2022/05/19 00:40:27;;;;;;;0.55;0.55;;;;;;;;;;5002043;28;20406;-79
2022/05/19 00:42:55;;;;;;;0.35;0.35;;;;;;;;;;4923491;28;20028;-79
2022/05/19 00:45:21;;;;;;;0.80;0.52;;;;;;;;;;4918474;29;20119;-80
2022/05/19 00:47:49;;;;;;;0.45;0.43;;;;;;;;;;4916858;29;20358;-78
2022/05/19 00:50:27;;;;;;;0.60;0.38;;;;;;;;;;4918451;29;20046;-80
2022/05/19 00:52:57;;;;;;;0.20;0.20;;;;;;;;;;4917496;29;20391;-80
2022/05/19 00:55:31;;;;;;;0.60;0.38;;;;;;;;;;4917605;29;20026;-80
2022/05/19 00:58:03;;;;;;;0.75;0.75;;;;;;;;;;4887601;29;20093;-80
2022/05/19 01:00:30;;;;;;;0.55;0.55;;;;;;;;;;4866062;29;20047;-80
2022/05/19 01:02:58;;;;;;;0.40;0.40;;;;;;;;;;4920244;29;20037;-79
2022/05/19 01:05:40;;;;;;;0.68;0.68;;;;;;;;;;4897369;29;20037;-79
2022/05/19 01:08:29;;;;;;;0.30;0.30;;;;;;;;;;4891848;29;20032;-80
2022/05/19 01:10:55;;;;;;;0.20;0.20;;;;;;;;;;4899297;29;20451;-81
2022/05/19 01:13:21;;;;;;;0.65;0.60;;;;;;;;;;4929831;29;20043;-80
2022/05/19 01:15:49;;;;;;;0.45;0.38;;;;;;;;;;4913780;29;20024;-80
2022/05/19 01:18:17;;;;;;;0.73;0.35;;;;;;;;;;4905529;29;20055;-79
2022/05/19 01:20:44;;;;;;;0.17;0.10;;;;;;;;;;4917238;29;20036;-80
2022/05/19 01:23:21;;;;;;;0.28;0.20;;;;;;;;;;4917211;29;20028;-80
2022/05/19 01:26:09;;;;;;;0.95;0.85;;;;;;;;;;4918112;29;20034;-80
2022/05/19 01:28:39;;;;;;;1.88;0.60;;;;;;;;;;4916754;29;20036;-80
2022/05/19 01:31:04;;;;;;;0.73;0.40;;;;;;;;;;4917116;29;20031;-80
2022/05/19 01:33:30;;;;;;;0.20;0.20;;;;;;;;;;4917083;29;20379;-80
2022/05/19 01:35:55;;;;;;;0.43;0.43;;;;;;;;;;4918176;29;20024;-80
2022/05/19 01:38:27;;;;;;;0.43;0.43;;;;;;;;;;4912639;29;20059;-80
2022/05/19 01:40:52;;;;;;;;;;;;;;;;;;4885930;29;20044;-77
2022/05/19 01:43:38;;;;;;;0.40;0.40;;;;;;;;;;4904242;29;19914;-78
2022/05/19 01:46:09;;;;;;;0.40;0.40;;;;;;;;;;4929440;29;20371;-78
2022/05/19 01:48:48;;;;;;;0.77;0.60;;;;;;;;;;4899044;29;20095;-77
2022/05/19 01:51:39;;;;;;;0.55;0.55;;;;;;;;;;4898974;29;20345;-77
2022/05/19 01:54:24;;;;;;;0.35;0.35;;;;;;;;;;4882014;29;20060;-77
2022/05/19 01:57:02;;;;;;;0.47;0.40;;;;;;;;;;4932642;29;20449;-77
2022/05/19 01:59:27;;;;;;;0.52;0.32;;;;;;;;;;4911930;29;20387;-79
2022/05/19 02:02:04;;;;;;;0.55;0.38;;;;;;;;;;4899900;29;20115;-78
2022/05/19 02:04:58;;;;;;;0.43;0.32;;;;;;;;;;4926584;29;20028;-79
2022/05/19 02:07:24;;;;;;;0.28;0.28;;;;;;;;;;4897263;29;20402;-78
2022/05/19 02:09:55;;;;;;;0.73;0.65;;;;;;;;;;4899094;29;20395;-79
2022/05/19 02:12:21;;;;;;;0.57;0.45;;;;;;;;;;4898794;29;20046;-79
2022/05/19 02:14:55;;;;;;;0.57;0.40;;;;;;;;;;4931834;29;20361;-79
2022/05/19 02:17:24;;;;;;;0.50;0.50;;;;;;;;;;4916783;29;20043;-79
2022/05/19 02:19:53;;;;;;;0.47;0.47;;;;;;;;;;4914051;29;20451;-78
2022/05/19 02:22:20;;;;;;;1.02;0.52;;;;;;;;;;4931958;29;20040;-77
2022/05/19 02:25:00;;;;;;;1.30;0.40;;;;;;;;;;4934812;29;20107;-78
2022/05/19 02:27:37;;;;;;;0.45;0.45;;;;;;;;;;4917947;29;20035;-78
2022/05/19 02:30:07;;;;;;;2.72;0.40;;;;;;;;;;4932632;29;20334;-78
2022/05/19 02:32:35;;;;;;;0.50;0.50;;;;;;;;;;4901826;29;20036;-78
2022/05/19 02:35:01;;;;;;;0.65;0.47;;;;;;;;;;4916602;29;20461;-78
2022/05/19 02:37:26;;;;;;;0.65;0.45;;;;;;;;;;4901871;29;20060;-79
2022/05/19 02:39:52;;;;;;;0.13;0.13;;;;;;;;;;4920859;29;20040;-79
2022/05/19 02:42:17;;;;;;;0.30;0.30;;;;;;;;;;4978804;28;20058;-79
2022/05/19 02:44:44;;;;;;;0.38;0.28;;;;;;;;;;4974286;28;20031;-79
2022/05/19 02:47:10;;;;;;;0.55;0.43;;;;;;;;;;4960365;28;20042;-78
2022/05/19 02:49:35;;;;;;;0.40;0.40;;;;;;;;;;4963199;28;20031;-77
2022/05/19 02:52:00;;;;;;;0.50;0.50;;;;;;;;;;4996542;28;20459;-79
2022/05/19 02:54:26;;;;;;;0.30;0.30;;;;;;;;;;4997365;28;20037;-79
2022/05/19 02:56:51;;;;;;;0.70;0.55;;;;;;;;;;4997376;28;20029;-79
2022/05/19 02:59:19;;;;;;;0.60;0.50;;;;;;;;;;4995416;28;20121;-79
2022/05/19 03:01:44;;;;;;;0.40;0.20;;;;;;;;;;4972016;28;20030;-79
2022/05/19 03:04:09;;;;;;;1.95;0.90;;;;;;;;;;4996517;28;20476;-77
2022/05/19 03:06:37;;;;;;;0.52;0.40;;;;;;;;;;4977276;28;20034;-78
2022/05/19 03:09:04;;;;;;;1.17;0.80;;;;;;;;;;4990307;28;20498;-79
2022/05/19 03:11:32;;;;;;;0.60;0.50;;;;;;;;;;4993708;28;20109;-79
2022/05/19 03:13:57;;;;;;;0.40;0.40;;;;;;;;;;5012244;28;20036;-79
2022/05/19 03:16:23;;;;;;;0.30;0.30;;;;;;;;;;4995429;28;20022;-80
2022/05/19 03:18:49;;;;;;;0.40;0.40;;;;;;;;;;4977796;28;20026;-80
2022/05/19 03:21:19;;;;;;;1.60;1.10;;;;;;;;;;4983116;28;20404;-80
2022/05/19 03:23:44;;;;;;;0.52;0.40;;;;;;;;;;4972108;28;20034;-80
2022/05/19 03:26:12;;;;;;;0.38;0.38;;;;;;;;;;4975795;28;20376;-79
2022/05/19 03:28:37;;;;;;;5.00;0.73;;;;;;;;;;4996784;28;20018;-81
2022/05/19 03:31:10;;;;;;;0.85;0.38;;;;;;;;;;4986270;28;20037;-81
2022/05/19 03:33:35;;;;;;;;;;;;;;;;;;4977401;28;20042;-80
2022/05/19 03:36:03;;;;;;;0.30;0.30;;;;;;;;;;4975795;28;20063;-80
2022/05/19 03:38:28;;;;;;;2.28;0.30;;;;;;;;;;4975782;28;20038;-80
2022/05/19 03:40:56;;;;;;;0.35;0.35;;;;;;;;;;4994288;28;20026;-80
2022/05/19 03:43:21;;;;;;;0.50;0.40;;;;;;;;;;4997321;28;20038;-80
2022/05/19 03:45:47;;;;;;;1.25;0.75;;;;;;;;;;4985004;28;20106;-80
2022/05/19 03:48:15;;;;;;;0.40;0.40;;;;;;;;;;4975989;28;20070;-79
2022/05/19 03:50:45;;;;;;;0.43;0.43;;;;;;;;;;5002350;28;20107;-79
2022/05/19 03:53:10;;;;;;;0.40;0.40;;;;;;;;;;4995563;28;20045;-80
2022/05/19 03:55:36;;;;;;;0.57;0.47;;;;;;;;;;5002801;28;20445;-80
2022/05/19 03:58:02;;;;;;;3.40;0.77;;;;;;;;;;4975846;28;20393;-80
2022/05/19 04:00:27;;;;;;;0.70;0.60;;;;;;;;;;4985686;28;20034;-79
2022/05/19 04:02:55;;;;;;;1.85;0.52;;;;;;;;;;5000426;28;20380;-79
2022/05/19 04:05:20;;;;;;;2.20;0.55;;;;;;;;;;4994906;28;20029;-82
2022/05/19 04:07:46;;;;;;;0.57;0.57;;;;;;;;;;4995611;28;20018;-79
2022/05/19 04:10:13;;;;;;;0.40;0.40;;;;;;;;;;4995490;28;20096;-79
2022/05/19 04:12:39;;;;;;;0.65;0.63;;;;;;;;;;4994807;28;20373;-80
2022/05/19 04:15:06;;;;;;;0.50;0.40;;;;;;;;;;4995061;28;20018;-80
2022/05/19 04:17:34;;;;;;;0.73;0.55;;;;;;;;;;4994927;28;20324;-77
2022/05/19 04:20:04;;;;;;;0.40;0.20;;;;;;;;;;5008822;28;20034;-80
2022/05/19 04:22:29;;;;;;;0.63;0.63;;;;;;;;;;4991588;28;20398;-79
2022/05/19 04:24:55;;;;;;;0.95;0.45;;;;;;;;;;4993664;28;20026;-79
2022/05/19 04:27:20;;;;;;;0.30;0.30;;;;;;;;;;4989512;28;20105;-78
2022/05/19 04:29:48;;;;;;;0.30;0.30;;;;;;;;;;4990609;28;20037;-78
2022/05/19 04:32:15;;;;;;;0.70;0.50;;;;;;;;;;4994183;28;20026;-78
2022/05/19 04:34:41;;;;;;;2.63;1.27;;;;;;;;;;4995150;28;20117;-76
2022/05/19 04:37:08;;;;;;;0.40;0.40;;;;;;;;;;4995055;28;20522;-79
2022/05/19 04:39:33;;;;;;;0.40;0.40;;;;;;;;;;4995477;28;20053;-77
2022/05/19 04:41:59;;;;;;;0.22;0.22;;;;;;;;;;4974665;28;20436;-78
2022/05/19 04:44:26;;;;;;;1.13;0.65;;;;;;;;;;4976016;28;20086;-79
2022/05/19 04:46:52;;;;;;;4.47;0.80;;;;;;;;;;4974587;28;20039;-77
2022/05/19 04:49:17;;;;;;;0.57;0.57;;;;;;;;;;4974677;28;20088;-79
2022/05/19 04:51:42;;;;;;;0.20;0.20;;;;;;;;;;4969098;28;20039;-83
2022/05/19 04:54:08;;;;;;;0.47;0.47;;;;;;;;;;4975910;28;20125;-79
2022/05/19 04:56:33;;;;;;;0.30;0.30;;;;;;;;;;4975331;28;20062;-79
2022/05/19 04:59:01;;;;;;;0.98;0.68;;;;;;;;;;4973844;28;20034;-79
2022/05/19 05:01:26;;;;;;;0.25;0.25;;;;;;;;;;4972979;28;20101;-80
2022/05/19 05:03:51;;;;;;;0.90;0.65;;;;;;;;;;4975104;28;20058;-78
2022/05/19 05:06:19;;;;;;;0.40;0.40;;;;;;;;;;4975308;28;20034;-79
2022/05/19 05:08:44;;;;;;;0.52;0.52;;;;;;;;;;4973918;28;20099;-79
2022/05/19 05:11:09;;;;;;;1.35;0.40;;;;;;;;;;4974305;28;20026;-79
2022/05/19 05:13:35;;;;;;;0.65;0.65;;;;;;;;;;4974812;28;20031;-79
2022/05/19 05:16:02;;;;;;;0.35;0.25;;;;;;;;;;4973876;28;20023;-79
2022/05/19 05:18:28;;;;;;;0.88;0.30;;;;;;;;;;4974224;28;20106;-79
2022/05/19 05:20:56;;;;;;;0.73;0.50;;;;;;;;;;4974590;28;20544;-79
2022/05/19 05:23:21;;;;;;;0.52;0.52;;;;;;;;;;4971076;28;20058;-79
2022/05/19 05:25:49;;;;;;;0.45;0.43;;;;;;;;;;4973684;28;20129;-78
2022/05/19 05:28:16;;;;;;;0.40;0.40;;;;;;;;;;4973557;28;20127;-80
2022/05/19 05:30:44;;;;;;;2.75;0.77;;;;;;;;;;4975233;28;20109;-79
2022/05/19 05:33:10;;;;;;;0.43;0.40;;;;;;;;;;4972878;28;20110;-81
2022/05/19 05:35:36;;;;;;;1.17;1.08;;;;;;;;;;4974129;28;20162;-79
2022/05/19 05:38:01;;;;;;;1.40;0.30;;;;;;;;;;4973992;28;20027;-81
2022/05/19 05:40:31;;;;;;;0.40;0.40;;;;;;;;;;4968181;28;20046;-80
2022/05/19 05:43:13;;;;;;;0.30;0.30;;;;;;;;;;4953887;28;20027;-78
2022/05/19 05:45:40;;;;;;;0.30;0.30;;;;;;;;;;4935984;29;20051;-79
2022/05/19 05:48:08;;;;;;;1.33;1.08;;;;;;;;;;4951945;29;20029;-79
2022/05/19 05:50:36;;;;;;;1.02;0.55;;;;;;;;;;4954984;28;20051;-79
2022/05/19 05:53:01;;;;;;;1.20;0.77;;;;;;;;;;4954793;28;20072;-79
2022/05/19 05:55:27;;;;;;;0.20;0.20;;;;;;;;;;4954189;29;20023;-80
2022/05/19 05:57:53;;;;;;;0.30;0.30;;;;;;;;;;4952944;28;20033;-80
2022/05/19 06:00:18;;;;;;;1.08;0.17;;;;;;;;;;4958099;28;20058;-79
2022/05/19 06:02:44;;;;;;;0.60;0.43;;;;;;;;;;4958540;28;20368;-80
2022/05/19 06:05:10;;;;;;;0.40;0.40;;;;;;;;;;4958682;28;20027;-79
2022/05/19 06:07:36;;;;;;;1.42;0.73;;;;;;;;;;4959114;28;20074;-79
2022/05/19 06:10:01;;;;;;;0.32;0.32;;;;;;;;;;4958272;28;20046;-80
2022/05/19 06:12:27;;;;;;;0.77;0.63;;;;;;;;;;4957317;28;20051;-80
2022/05/19 06:14:56;;;;;;;0.40;0.25;;;;;;;;;;4956191;28;20074;-80
2022/05/19 06:17:24;;;;;;;2.05;1.30;;;;;;;;;;4957146;28;20042;-80
2022/05/19 06:19:52;;;;;;;10.60;3.13;;;;;;;;;;4958871;28;20027;-81
2022/05/19 06:22:18;;;;;;;0.88;0.73;;;;;;;;;;4956319;28;20050;-81
2022/05/19 06:24:46;;;;;;;0.45;0.45;;;;;;;;;;4958873;28;20030;-81
2022/05/19 06:27:13;;;;;;;2.50;1.30;;;;;;;;;;4955480;28;20035;-81
2022/05/19 06:29:39;;;;;;;0.60;0.60;;;;;;;;;;4944037;29;20110;-78
2022/05/19 06:32:04;;;;;;;28.85;12.07;;;;;;;;;;4964799;28;20118;-78
2022/05/19 06:34:30;;;;;;;67.82;18.42;;;;;;;;;;4958545;28;20396;-77
2022/05/19 06:36:56;;;;;;;12.93;4.80;;;;;;;;;;4958060;28;20038;-77
2022/05/19 06:39:21;;;;;;;4.72;1.13;;;;;;;;;;4957187;28;20027;-78
2022/05/19 06:42:02;;;;;;;0.35;0.35;;;;;;;;;;4957622;28;20031;-79
2022/05/19 06:44:38;;;;;;;0.47;0.47;;;;;;;;;;4957209;28;20035;-79
2022/05/19 06:47:14;;;;;;;0.47;0.47;;;;;;;;;;4956774;29;20031;-79
2022/05/19 06:49:44;;;;;;;1.65;1.23;;;;;;;;;;4958059;28;20460;-79
2022/05/19 06:52:13;;;;;;;1.27;0.85;;;;;;;;;;4955643;28;20054;-80
2022/05/19 06:54:44;;;;;;;0.32;0.32;;;;;;;;;;4957513;28;20042;-79
2022/05/19 06:57:09;;;;;;;1.33;1.00;;;;;;;;;;4955027;29;20033;-78
2022/05/19 06:59:35;;;;;;;1.73;0.52;;;;;;;;;;4957543;28;20449;-78
2022/05/19 07:02:00;;;;;;;0.93;0.88;;;;;;;;;;4957750;28;20085;-78
2022/05/19 07:04:28;;;;;;;5.93;1.17;;;;;;;;;;4956219;28;20044;-80
2022/05/19 07:06:53;;;;;;;1.10;0.90;;;;;;;;;;4950330;28;20455;-80
2022/05/19 07:09:18;;;;;;;0.88;0.82;;;;;;;;;;4948807;28;20031;-81
2022/05/19 07:11:44;;;;;;;29.98;1.35;;;;;;;;;;4955374;28;20391;-80
2022/05/19 07:14:10;;;;;;;1.35;0.80;;;;;;;;;;4956630;28;20042;-80
2022/05/19 07:16:38;;;;;;;1.40;0.80;;;;;;;;;;4971814;28;20019;-80
2022/05/19 07:21:51;;;;;;;12.30;0.55;;;;;;;;;;4955402;29;20042;-81
2022/05/19 07:24:19;;;;;;;12.75;2.30;;;;;;;;;;4958018;28;20038;-81
2022/05/19 07:26:49;;;;;;;1.13;0.77;;;;;;;;;;4957205;29;20019;-82
2022/05/19 07:29:16;;;;;;;0.55;0.55;;;;;;;;;;4957628;28;20114;-77
2022/05/19 07:31:41;;;;;;;2.10;1.20;;;;;;;;;;4956638;28;20449;-81
2022/05/19 07:34:08;;;;;;;0.30;0.30;;;;;;;;;;4957672;28;20039;-83
2022/05/19 07:36:34;;;;;;;10.88;0.55;;;;;;;;;;4955502;28;20020;-84
2022/05/19 07:39:05;;;;;;;0.98;0.88;;;;;;;;;;4955555;28;20042;-80
2022/05/19 07:41:31;;;;;;;0.30;0.30;;;;;;;;;;4941787;29;20039;-82
2022/05/19 07:43:57;;;;;;;0.57;0.50;;;;;;;;;;4957948;28;20031;-83
2022/05/19 07:46:26;;;;;;;0.90;0.68;;;;;;;;;;4956325;28;20114;-82
2022/05/19 07:48:55;;;;;;;0.73;0.70;;;;;;;;;;4971195;28;20448;-79
2022/05/19 07:51:28;;;;;;;0.98;0.52;;;;;;;;;;4957563;28;20422;-78
2022/05/19 07:53:54;;;;;;;1.17;0.95;;;;;;;;;;4955472;29;20035;-81
2022/05/19 07:56:20;;;;;;;0.65;0.50;;;;;;;;;;4954971;28;20106;-84
2022/05/19 07:58:48;;;;;;;5.63;1.48;;;;;;;;;;4956484;29;20119;-80
2022/05/19 08:01:15;;;;;;;2.17;1.88;;;;;;;;;;4955808;29;20031;-77
2022/05/19 08:03:44;;;;;;;1.48;1.25;;;;;;;;;;4953184;28;20089;-86
2022/05/19 08:06:10;;;;;;;2.15;0.77;;;;;;;;;;4955877;29;20035;-80
2022/05/19 08:08:37;;;;;;;1.02;0.50;;;;;;;;;;4956935;28;20039;-81
2022/05/19 08:11:02;;;;;;;0.93;0.52;;;;;;;;;;4955367;28;20027;-81
2022/05/19 08:16:12;;;;;;;0.63;0.60;;;;;;;;;;4957356;28;20524;-81
2022/05/19 08:18:37;;;;;;;0.73;0.68;;;;;;;;;;4956351;28;20047;-80
2022/05/19 08:21:06;;;;;;;0.63;0.40;;;;;;;;;;4955913;28;20109;-81
2022/05/19 08:23:37;;;;;;;3.00;0.77;;;;;;;;;;4955575;29;20404;-81
2022/05/19 08:26:03;;;;;;;0.57;0.57;;;;;;;;;;4954700;28;20031;-82
2022/05/19 08:28:29;;;;;;;0.40;0.40;;;;;;;;;;4956881;29;20027;-80
2022/05/19 08:31:00;;;;;;;0.60;0.60;;;;;;;;;;4939096;29;20035;-80
2022/05/19 08:33:26;;;;;;;0.98;0.60;;;;;;;;;;4955822;29;20047;-79
2022/05/19 08:35:52;;;;;;;0.45;0.35;;;;;;;;;;4955401;29;20027;-82
2022/05/19 08:38:18;;;;;;;1.02;0.65;;;;;;;;;;4956485;28;20133;-81
2022/05/19 08:41:00;;;;;;;1.38;1.00;;;;;;;;;;4954922;28;20046;-81
2022/05/19 08:43:30;;;;;;;1.23;0.60;;;;;;;;;;4955310;29;20027;-79
2022/05/19 08:45:58;;;;;;;0.60;0.47;;;;;;;;;;4938407;29;20031;-82
2022/05/19 08:48:26;;;;;;;1.08;0.70;;;;;;;;;;4957093;29;20444;-77
2022/05/19 08:51:00;;;;;;;0.32;0.32;;;;;;;;;;4954376;28;20042;-80
2022/05/19 08:53:32;;;;;;;0.50;0.50;;;;;;;;;;4953970;28;20162;-79
2022/05/19 08:56:02;;;;;;;1.30;0.63;;;;;;;;;;4952470;28;20035;-81
2022/05/19 08:58:40;;;;;;;0.50;0.50;;;;;;;;;;4955292;29;20114;-80
2022/05/19 09:01:20;;;;;;;0.73;0.35;;;;;;;;;;4953509;28;20106;-78
2022/05/19 09:04:19;;;;;;;0.65;0.40;;;;;;;;;;4941402;29;20027;-79
2022/05/19 09:09:52;;;;;;;0.80;0.80;;;;;;;;;;4952588;28;20057;-77
2022/05/19 09:12:23;;;;;;;0.90;0.57;;;;;;;;;;4955687;28;20094;-78
2022/05/19 09:14:52;;;;;;;2.55;0.82;;;;;;;;;;4953958;28;20031;-78
2022/05/19 09:17:20;;;;;;;2.10;1.10;;;;;;;;;;4955507;28;20038;-78
2022/05/19 09:19:47;;;;;;;0.57;0.57;;;;;;;;;;4955313;29;20033;-75
2022/05/19 09:22:20;;;;;;;0.30;0.30;;;;;;;;;;4957689;28;20049;-80
2022/05/19 09:24:48;;;;;;;0.70;0.47;;;;;;;;;;4955556;28;20393;-85
2022/05/19 09:27:14;;;;;;;2.47;1.00;;;;;;;;;;4956168;29;20070;-87
2022/05/19 09:29:51;;;;;;;0.65;0.40;;;;;;;;;;4965231;28;20066;-81
2022/05/19 09:32:29;;;;;;;2.50;0.80;;;;;;;;;;4959268;28;20027;-81
2022/05/19 09:35:24;;;;;;;0.52;0.52;;;;;;;;;;4939856;29;20038;-82
2022/05/19 09:38:13;;;;;;;3.42;1.02;;;;;;;;;;4954355;28;20103;-81
2022/05/19 09:40:42;;;;;;;4.95;0.80;;;;;;;;;;4957237;28;20361;-81
2022/05/19 09:43:22;;;;;;;1.27;0.90;;;;;;;;;;4956929;28;21345;-82
2022/05/19 09:45:53;;;;;;;1.38;1.13;;;;;;;;;;4966309;28;20031;-82
2022/05/19 09:48:28;;;;;;;0.63;0.55;;;;;;;;;;4951770;28;20049;-83
2022/05/19 09:51:00;;;;;;;0.40;0.40;;;;;;;;;;4953212;28;20047;-82
2022/05/19 09:53:27;;;;;;;0.20;0.20;;;;;;;;;;4944355;29;20059;-81
2022/05/19 09:55:56;;;;;;;0.80;0.55;;;;;;;;;;4949071;29;20019;-81
2022/05/19 09:58:22;;;;;;;7.32;1.00;;;;;;;;;;4952467;28;20063;-81
2022/05/19 10:00:56;;;;;;;1.33;0.82;;;;;;;;;;4956107;28;20042;-82
2022/05/19 10:03:43;;;;;;;0.40;0.40;;;;;;;;;;4955290;28;20043;-80
2022/05/19 10:06:17;;;;;;;0.40;0.40;;;;;;;;;;4958631;29;20042;-81
2022/05/19 10:08:44;;;;;;;0.63;0.63;;;;;;;;;;4954583;29;20046;-81
2022/05/19 10:11:13;;;;;;;2.85;1.13;;;;;;;;;;4957956;28;20046;-79
2022/05/19 10:13:55;;;;;;;1.00;0.95;;;;;;;;;;4960929;28;20042;-80
2022/05/19 10:16:48;;;;;;;1.27;0.90;;;;;;;;;;4983365;28;20042;-81
2022/05/19 10:19:30;;;;;;;1.38;0.93;;;;;;;;;;4960351;28;20054;-80
2022/05/19 10:22:05;;;;;;;1.48;0.60;;;;;;;;;;4956418;28;20367;-79
2022/05/19 10:24:48;;;;;;;3.03;1.17;;;;;;;;;;4957713;28;20352;-80
2022/05/19 10:33:28;;;;;;;0.52;0.52;;;;;;;;;;4953667;28;20361;-76
2022/05/19 10:36:22;;;;;;;1.23;0.85;;;;;;;;;;4974621;28;20023;-78
2022/05/19 10:39:02;;;;;;;0.93;0.93;;;;;;;;;;4956025;29;20035;-77
2022/05/19 10:41:34;;;;;;;0.45;0.45;;;;;;;;;;4958405;28;20035;-78
2022/05/19 10:44:17;;;;;;;0.77;0.77;;;;;;;;;;4957861;28;20054;-78
2022/05/19 10:46:48;;;;;;;0.77;0.75;;;;;;;;;;4958754;28;20100;-77
2022/05/19 10:49:49;;;;;;;11.57;1.05;;;;;;;;;;4958613;28;20051;-77
2022/05/19 10:52:42;;;;;;;19.70;2.67;;;;;;;;;;4957318;28;20035;-77
2022/05/19 10:55:26;;;;;;;0.38;0.38;;;;;;;;;;4958588;28;20066;-78
2022/05/19 10:58:01;;;;;;;0.90;0.73;;;;;;;;;;4958299;28;20101;-77
2022/05/19 11:00:46;;;;;;;1.02;0.93;;;;;;;;;;4957466;28;20055;-77
2022/05/19 11:03:30;;;;;;;0.65;0.65;;;;;;;;;;4957504;29;20023;-79
2022/05/19 11:06:25;;;;;;;3.03;1.00;;;;;;;;;;4958308;28;20042;-79
2022/05/19 11:09:08;;;;;;;1.10;1.00;;;;;;;;;;4957317;29;20034;-77
2022/05/19 11:12:03;;;;;;;0.68;0.68;;;;;;;;;;4957369;29;20034;-76
2022/05/19 11:14:53;;;;;;;1.65;1.10;;;;;;;;;;4958124;28;20357;-75
2022/05/19 11:17:38;;;;;;;0.90;0.60;;;;;;;;;;4957070;29;20053;-76
2022/05/19 11:20:12;;;;;;;0.65;0.65;;;;;;;;;;4957913;28;20093;-77
2022/05/19 11:22:39;;;;;;;0.93;0.80;;;;;;;;;;4957089;29;20023;-76
2022/05/19 11:27:59;;;;;;;0.57;0.57;;;;;;;;;;4957274;29;20466;-77
2022/05/19 11:30:34;;;;;;;2.33;0.88;;;;;;;;;;4957742;28;20042;-76
2022/05/19 11:33:03;;;;;;;0.65;0.55;;;;;;;;;;4973084;28;20034;-75
2022/05/19 11:35:35;;;;;;;1.98;0.98;;;;;;;;;;4940787;29;20023;-77
2022/05/19 11:38:18;;;;;;;9.10;2.55;;;;;;;;;;4956789;29;20023;-77
2022/05/19 11:40:55;;;;;;;0.73;0.73;;;;;;;;;;4956487;29;20050;-76
2022/05/19 11:43:33;;;;;;;0.73;0.70;;;;;;;;;;4956694;28;20449;-76
2022/05/19 11:46:04;;;;;;;0.80;0.60;;;;;;;;;;4956613;29;20344;-77
2022/05/19 11:57:40;;;;;;;1.15;1.05;;;;;;;;;;4956313;28;20111;-78
2022/05/19 12:00:08;;;;;;;0.80;0.60;;;;;;;;;;4956487;29;20119;-77
2022/05/19 12:03:14;;;;;;;0.52;0.52;;;;;;;;;;4956238;28;20038;-78
2022/05/19 12:05:51;;;;;;;0.40;0.40;;;;;;;;;;4957001;29;20191;-78
2022/05/19 12:08:48;;;;;;;1.55;0.65;;;;;;;;;;4957440;28;20030;-77
2022/05/19 12:11:25;;;;;;;0.50;0.50;;;;;;;;;;4955817;28;20105;-77
2022/05/19 12:14:05;;;;;;;0.70;0.60;;;;;;;;;;4940257;29;20428;-77
2022/05/19 12:16:48;;;;;;;0.60;0.60;;;;;;;;;;4956053;29;20223;-78
2022/05/19 12:19:53;;;;;;;0.85;0.85;;;;;;;;;;4957171;28;20051;-79
2022/05/19 12:22:24;;;;;;;0.70;0.70;;;;;;;;;;4956241;29;20047;-78
2022/05/19 12:24:55;;;;;;;1.98;1.02;;;;;;;;;;4956079;28;20031;-78
2022/05/19 12:27:32;;;;;;;0.70;0.70;;;;;;;;;;4957206;28;20027;-78
2022/05/19 12:33:24;;;;;;;29.98;3.08;;;;;;;;;;4957452;29;20153;-80
2022/05/19 12:35:59;;;;;;;0.80;0.60;;;;;;;;;;4966473;28;20069;-77
2022/05/19 12:38:37;;;;;;;1.67;0.93;;;;;;;;;;4963401;28;20050;-79
2022/05/19 12:41:09;;;;;;;0.52;0.52;;;;;;;;;;4957512;28;20042;-77
2022/05/19 12:43:37;;;;;;;1.15;1.05;;;;;;;;;;4956417;28;20059;-77
2022/05/19 12:46:03;;;;;;;0.60;0.60;;;;;;;;;;4956739;28;20031;-77
2022/05/19 12:48:32;;;;;;;3.33;0.77;;;;;;;;;;4956864;28;20102;-77
2022/05/19 12:51:08;;;;;;;1.75;0.80;;;;;;;;;;4956834;28;20106;-76
2022/05/19 12:53:51;;;;;;;2.80;0.68;;;;;;;;;;4957000;28;20129;-78
2022/05/19 12:56:41;;;;;;;0.60;0.60;;;;;;;;;;4955829;28;20042;-77
2022/05/19 12:59:31;;;;;;;0.50;0.50;;;;;;;;;;4951840;28;20114;-77
2022/05/19 13:01:59;;;;;;;0.65;0.60;;;;;;;;;;4952542;29;20027;-78
2022/05/19 13:04:31;;;;;;;0.38;0.38;;;;;;;;;;4955501;29;20030;-77
2022/05/19 13:07:15;;;;;;;2.20;1.45;;;;;;;;;;4955120;28;20027;-75
2022/05/19 13:09:42;;;;;;;1.83;1.05;;;;;;;;;;4939874;28;20039;-77
2022/05/19 13:12:16;;;;;;;1.00;0.73;;;;;;;;;;4950831;29;20054;-78
2022/05/19 13:14:50;;;;;;;1.88;1.25;;;;;;;;;;4955948;28;20034;-77
2022/05/19 13:17:28;;;;;;;2.45;1.33;;;;;;;;;;4947332;29;20030;-77
2022/05/19 13:19:55;;;;;;;0.45;0.45;;;;;;;;;;4943092;29;20622;-79
2022/05/19 13:22:22;;;;;;;1.50;0.82;;;;;;;;;;4951858;29;20039;-76
2022/05/19 13:24:48;;;;;;;0.68;0.68;;;;;;;;;;4924341;29;20070;-76
2022/05/19 13:30:29;;;;;;;1.83;0.98;;;;;;;;;;4953118;29;20480;-76
2022/05/19 13:33:05;;;;;;;1.67;1.15;;;;;;;;;;4942887;28;20101;-75
2022/05/19 13:35:33;;;;;;;0.22;0.22;;;;;;;;;;4956018;28;20038;-76
2022/05/19 13:38:04;;;;;;;0.47;0.35;;;;;;;;;;4955862;28;20031;-76
2022/05/19 13:40:33;;;;;;;0.10;0.10;;;;;;;;;;4940616;28;20042;-76
2022/05/19 13:43:05;;;;;;;3.88;1.77;;;;;;;;;;4954827;29;20027;-76
2022/05/19 13:45:48;;;;;;;7.43;0.98;;;;;;;;;;4955303;29;20031;-76
2022/05/19 13:48:23;;;;;;;15.82;0.85;;;;;;;;;;4942777;28;20056;-76
2022/05/19 13:50:51;;;;;;;0.30;0.30;;;;;;;;;;4964770;28;20059;-76
2022/05/19 13:53:17;;;;;;;0.08;0.08;;;;;;;;;;4941156;29;20020;-75
2022/05/19 13:55:42;;;;;;;0.25;0.25;;;;;;;;;;4948041;29;20115;-76
2022/05/19 13:58:16;;;;;;;1.55;1.40;;;;;;;;;;4945239;28;20107;-77
2022/05/19 14:00:44;;;;;;;4.38;0.70;;;;;;;;;;4938300;28;20509;-78
2022/05/19 14:03:09;;;;;;;0.25;0.25;;;;;;;;;;4952263;29;20458;-78
2022/05/19 14:05:40;;;;;;;4.13;1.17;;;;;;;;;;4940958;29;20032;-79
2022/05/19 14:08:09;;;;;;;0.25;0.25;;;;;;;;;;4945210;29;20035;-78
2022/05/19 14:10:55;;;;;;;0.32;0.32;;;;;;;;;;4948941;29;20397;-78
2022/05/19 14:13:23;;;;;;;0.10;0.10;;;;;;;;;;4967069;28;20043;-79
2022/05/19 14:16:04;;;;;;;4.82;1.77;;;;;;;;;;4955505;28;20091;-78
2022/05/19 14:18:40;;;;;;;0.55;0.55;;;;;;;;;;4951234;29;20379;-79
2022/05/19 14:21:15;;;;;;;0.40;0.40;;;;;;;;;;4968460;28;20028;-80
2022/05/19 14:23:52;;;;;;;0.20;0.20;;;;;;;;;;4939931;29;20035;-79
2022/05/19 14:26:23;;;;;;;0.80;0.35;;;;;;;;;;4939940;29;20059;-77
2022/05/19 14:28:49;;;;;;;0.40;0.20;;;;;;;;;;4954942;29;20020;-76
2022/05/19 14:31:37;;;;;;;5.82;0.63;;;;;;;;;;4954855;29;20024;-76
2022/05/19 14:34:12;;;;;;;0.98;0.75;;;;;;;;;;4945870;28;20186;-77
2022/05/19 14:36:44;;;;;;;3.50;0.65;;;;;;;;;;4939644;29;20111;-77
2022/05/19 14:39:20;;;;;;;0.65;0.65;;;;;;;;;;4938834;29;20363;-76
2022/05/19 14:44:51;;;;;;;0.70;0.40;;;;;;;;;;4957763;29;20107;-75
2022/05/19 14:47:25;;;;;;;0.20;0.20;;;;;;;;;;4957819;28;20118;-75
2022/05/19 14:50:16;;;;;;;7.65;0.38;;;;;;;;;;4974240;28;20049;-76
2022/05/19 14:53:23;;;;;;;0.32;0.32;;;;;;;;;;4992964;28;20026;-74
2022/05/19 14:56:09;;;;;;;1.70;1.08;;;;;;;;;;4975504;28;20039;-76
2022/05/19 14:59:18;;;;;;;0.47;0.32;;;;;;;;;;4976456;28;20460;-76
2022/05/19 15:01:44;;;;;;;0.30;0.30;;;;;;;;;;4939359;29;20035;-77
2022/05/19 15:04:10;;;;;;;0.20;0.20;;;;;;;;;;4939372;29;20020;-76
2022/05/19 15:06:35;;;;;;;0.85;0.40;;;;;;;;;;4939665;29;20024;-75
2022/05/19 15:09:01;;;;;;;0.45;0.45;;;;;;;;;;4971207;28;20456;-75
2022/05/19 15:11:30;;;;;;;1.35;0.77;;;;;;;;;;4992982;28;20023;-75
2022/05/19 15:13:56;;;;;;;1.05;0.95;;;;;;;;;;4977735;28;20441;-76
2022/05/19 15:16:22;;;;;;;3.75;2.05;;;;;;;;;;4977701;28;20069;-77
2022/05/19 15:18:48;;;;;;;0.68;0.68;;;;;;;;;;4977329;28;20033;-76
2022/05/19 15:21:14;;;;;;;1.60;0.85;;;;;;;;;;4976941;28;20349;-76
2022/05/19 15:23:41;;;;;;;1.65;0.75;;;;;;;;;;4977604;28;20037;-75
2022/05/19 15:26:08;;;;;;;0.60;0.60;;;;;;;;;;4976327;28;20034;-75
2022/05/19 15:28:38;;;;;;;10.25;1.10;;;;;;;;;;4963693;28;20022;-75
2022/05/19 15:31:04;;;;;;;0.10;0.10;;;;;;;;;;4977200;28;20448;-75
2022/05/19 15:33:29;;;;;;;0.30;0.30;;;;;;;;;;4976471;28;20037;-75
2022/05/19 15:35:57;;;;;;;0.75;0.75;;;;;;;;;;4977225;28;20356;-75
2022/05/19 15:38:23;;;;;;;0.30;0.30;;;;;;;;;;4977133;28;20030;-75
2022/05/19 15:40:51;;;;;;;1.75;1.42;;;;;;;;;;4976866;28;20118;-75
2022/05/19 15:43:16;;;;;;;0.10;0.10;;;;;;;;;;4977174;28;20037;-75
2022/05/19 15:45:41;;;;;;;0.20;0.20;;;;;;;;;;4967779;28;20027;-76
2022/05/19 15:48:08;;;;;;;1.45;0.95;;;;;;;;;;4945704;28;20026;-75
2022/05/19 15:50:33;;;;;;;4.30;1.10;;;;;;;;;;4992011;28;20023;-76